sensor_id;sensor_type;location;lat;lon;timestamp;temperature;humidity
67547;HTU21D;54381;53.516;49.424;2022-08-11T00:00:39;21.42;74.32
67547;HTU21D;54381;53.516;49.424;2022-08-11T00:03:13;21.46;74.36
67547;HTU21D;54381;53.516;49.424;2022-08-11T00:05:46;21.36;74.89
67547;HTU21D;54381;53.516;49.424;2022-08-11T00:08:31;21.28;75.47
67547;HTU21D;54381;53.516;49.424;2022-08-11T00:11:01;21.20;75.84
67547;HTU21D;54381;53.516;49.424;2022-08-11T00:13:35;21.11;76.59
67547;HTU21D;54381;53.516;49.424;2022-08-11T00:16:03;21.17;76.21
67547;HTU21D;54381;53.516;49.424;2022-08-11T00:18:38;21.31;75.31
67547;HTU21D;54381;53.516;49.424;2022-08-11T00:21:06;21.54;75.08
67547;HTU21D;54381;53.516;49.424;2022-08-11T00:23:32;21.39;75.49
67547;HTU21D;54381;53.516;49.424;2022-08-11T00:26:00;21.31;76.15
67547;HTU21D;54381;53.516;49.424;2022-08-11T00:28:31;21.11;77.08
67547;HTU21D;54381;53.516;49.424;2022-08-11T00:31:03;21.00;77.73
67547;HTU21D;54381;53.516;49.424;2022-08-11T00:33:41;20.95;77.66
67547;HTU21D;54381;53.516;49.424;2022-08-11T00:36:10;21.27;76.53
67547;HTU21D;54381;53.516;49.424;2022-08-11T00:38:39;21.06;77.52
67547;HTU21D;54381;53.516;49.424;2022-08-11T00:44:54;20.73;79.17
67547;HTU21D;54381;53.516;49.424;2022-08-11T00:50:03;20.70;79.50
67547;HTU21D;54381;53.516;49.424;2022-08-11T01:07:04;20.45;81.23
67547;HTU21D;54381;53.516;49.424;2022-08-11T01:12:38;20.71;79.72
67547;HTU21D;54381;53.516;49.424;2022-08-11T01:24:55;20.47;81.23
67547;HTU21D;54381;53.516;49.424;2022-08-11T01:32:48;20.45;81.33
67547;HTU21D;54381;53.516;49.424;2022-08-11T01:41:21;20.50;81.10
67547;HTU21D;54381;53.516;49.424;2022-08-11T01:47:25;20.93;79.02
67547;HTU21D;54381;53.516;49.424;2022-08-11T01:58:54;20.43;81.56
67547;HTU21D;54381;53.516;49.424;2022-08-11T02:06:49;20.65;80.67
67547;HTU21D;54381;53.516;49.424;2022-08-11T02:18:03;21.39;77.75
67547;HTU21D;54381;53.516;49.424;2022-08-11T02:20:55;21.79;75.83
67547;HTU21D;54381;53.516;49.424;2022-08-11T02:23:57;21.76;75.31
67547;HTU21D;54381;53.516;49.424;2022-08-11T02:26:43;21.82;75.67
67547;HTU21D;54381;53.516;49.424;2022-08-11T02:29:24;21.65;76.20
67547;HTU21D;54381;53.516;49.424;2022-08-11T02:32:18;21.45;77.26
67547;HTU21D;54381;53.516;49.424;2022-08-11T02:38:32;21.51;77.12
67547;HTU21D;54381;53.516;49.424;2022-08-11T02:40:57;21.73;76.18
67547;HTU21D;54381;53.516;49.424;2022-08-11T02:44:05;21.65;76.72
67547;HTU21D;54381;53.516;49.424;2022-08-11T02:46:50;21.85;75.42
67547;HTU21D;54381;53.516;49.424;2022-08-11T02:49:43;21.98;75.25
67547;HTU21D;54381;53.516;49.424;2022-08-11T02:58:13;22.44;73.86
67547;HTU21D;54381;53.516;49.424;2022-08-11T03:01:02;22.73;72.71
67547;HTU21D;54381;53.516;49.424;2022-08-11T03:03:43;22.64;73.15
67547;HTU21D;54381;53.516;49.424;2022-08-11T03:09:12;23.17;71.15
67547;HTU21D;54381;53.516;49.424;2022-08-11T03:12:05;23.30;69.68
67547;HTU21D;54381;53.516;49.424;2022-08-11T03:15:19;23.58;69.65
67547;HTU21D;54381;53.516;49.424;2022-08-11T03:18:27;23.61;69.62
67547;HTU21D;54381;53.516;49.424;2022-08-11T03:21:22;24.41;67.09
67547;HTU21D;54381;53.516;49.424;2022-08-11T03:24:09;27.01;57.83
67547;HTU21D;54381;53.516;49.424;2022-08-11T03:27:19;28.19;54.54
67547;HTU21D;54381;53.516;49.424;2022-08-11T03:35:53;29.87;49.37
67547;HTU21D;54381;53.516;49.424;2022-08-11T03:38:25;30.70;46.98
67547;HTU21D;54381;53.516;49.424;2022-08-11T03:41:12;30.71;46.86
67547;HTU21D;54381;53.516;49.424;2022-08-11T03:46:58;31.12;45.86
67547;HTU21D;54381;53.516;49.424;2022-08-11T03:58:38;30.76;47.04
67547;HTU21D;54381;53.516;49.424;2022-08-11T04:13:48;27.73;55.97
67547;HTU21D;54381;53.516;49.424;2022-08-11T04:20:08;26.42;60.23
67547;HTU21D;54381;53.516;49.424;2022-08-11T04:27:56;26.31;60.28
67547;HTU21D;54381;53.516;49.424;2022-08-11T04:31:05;26.85;58.90
67547;HTU21D;54381;53.516;49.424;2022-08-11T04:33:42;27.21;57.78
67547;HTU21D;54381;53.516;49.424;2022-08-11T05:15:35;36.30;34.61
67547;HTU21D;54381;53.516;49.424;2022-08-11T05:18:25;36.33;34.68
67547;HTU21D;54381;53.516;49.424;2022-08-11T05:21:12;36.47;34.05
67547;HTU21D;54381;53.516;49.424;2022-08-11T05:24:11;36.14;34.91
67547;HTU21D;54381;53.516;49.424;2022-08-11T05:27:00;35.94;35.36
67547;HTU21D;54381;53.516;49.424;2022-08-11T05:29:57;35.77;35.60
67547;HTU21D;54381;53.516;49.424;2022-08-11T05:32:45;34.91;37.16
67547;HTU21D;54381;53.516;49.424;2022-08-11T05:35:46;35.44;35.63
67547;HTU21D;54381;53.516;49.424;2022-08-11T05:38:23;35.49;35.25
67547;HTU21D;54381;53.516;49.424;2022-08-11T05:41:12;35.31;35.80
67547;HTU21D;54381;53.516;49.424;2022-08-11T05:43:59;35.87;34.07
67547;HTU21D;54381;53.516;49.424;2022-08-11T05:46:44;35.72;34.34
67547;HTU21D;54381;53.516;49.424;2022-08-11T05:49:30;36.07;33.31
67547;HTU21D;54381;53.516;49.424;2022-08-11T05:52:29;37.10;32.19
67547;HTU21D;54381;53.516;49.424;2022-08-11T05:55:15;37.05;31.80
67547;HTU21D;54381;53.516;49.424;2022-08-11T05:58:06;36.86;32.29
67547;HTU21D;54381;53.516;49.424;2022-08-11T06:00:41;36.80;32.21
67547;HTU21D;54381;53.516;49.424;2022-08-11T06:03:08;36.78;32.41
67547;HTU21D;54381;53.516;49.424;2022-08-11T06:05:37;36.38;33.02
67547;HTU21D;54381;53.516;49.424;2022-08-11T06:08:08;36.01;33.95
67547;HTU21D;54381;53.516;49.424;2022-08-11T06:10:37;35.95;33.34
67547;HTU21D;54381;53.516;49.424;2022-08-11T06:13:06;36.21;32.86
67547;HTU21D;54381;53.516;49.424;2022-08-11T06:15:42;36.19;32.71
67547;HTU21D;54381;53.516;49.424;2022-08-11T06:18:10;36.43;32.52
67547;HTU21D;54381;53.516;49.424;2022-08-11T06:20:49;37.42;31.36
67547;HTU21D;54381;53.516;49.424;2022-08-11T06:23:17;36.93;31.40
67547;HTU21D;54381;53.516;49.424;2022-08-11T06:25:45;37.74;30.02
67547;HTU21D;54381;53.516;49.424;2022-08-11T06:28:12;37.49;30.42
67547;HTU21D;54381;53.516;49.424;2022-08-11T06:30:43;37.51;30.16
67547;HTU21D;54381;53.516;49.424;2022-08-11T06:38:44;36.98;30.96
67547;HTU21D;54381;53.516;49.424;2022-08-11T06:41:38;37.11;30.74
67547;HTU21D;54381;53.516;49.424;2022-08-11T06:46:42;36.60;31.27
67547;HTU21D;54381;53.516;49.424;2022-08-11T06:49:14;36.36;31.91
67547;HTU21D;54381;53.516;49.424;2022-08-11T06:52:02;35.78;31.90
67547;HTU21D;54381;53.516;49.424;2022-08-11T06:54:36;35.75;32.48
67547;HTU21D;54381;53.516;49.424;2022-08-11T06:57:10;36.67;30.59
67547;HTU21D;54381;53.516;49.424;2022-08-11T06:59:56;36.40;30.97
67547;HTU21D;54381;53.516;49.424;2022-08-11T07:03:25;37.32;29.79
67547;HTU21D;54381;53.516;49.424;2022-08-11T07:08:38;37.50;29.35
67547;HTU21D;54381;53.516;49.424;2022-08-11T07:14:34;36.36;30.37
67547;HTU21D;54381;53.516;49.424;2022-08-11T07:17:22;36.69;30.18
67547;HTU21D;54381;53.516;49.424;2022-08-11T07:19:59;36.18;31.05
67547;HTU21D;54381;53.516;49.424;2022-08-11T07:22:51;35.29;32.87
67547;HTU21D;54381;53.516;49.424;2022-08-11T07:25:39;35.65;32.39
67547;HTU21D;54381;53.516;49.424;2022-08-11T07:28:27;35.88;32.08
67547;HTU21D;54381;53.516;49.424;2022-08-11T07:34:24;36.81;30.19
67547;HTU21D;54381;53.516;49.424;2022-08-11T07:36:54;36.37;30.74
67547;HTU21D;54381;53.516;49.424;2022-08-11T07:39:27;36.43;30.10
67547;HTU21D;54381;53.516;49.424;2022-08-11T07:41:57;36.16;31.08
67547;HTU21D;54381;53.516;49.424;2022-08-11T07:44:27;35.95;30.99
67547;HTU21D;54381;53.516;49.424;2022-08-11T07:46:55;35.36;32.83
67547;HTU21D;54381;53.516;49.424;2022-08-11T07:49:43;35.31;32.15
67547;HTU21D;54381;53.516;49.424;2022-08-11T07:52:30;35.29;32.48
67547;HTU21D;54381;53.516;49.424;2022-08-11T07:55:05;35.00;32.57
67547;HTU21D;54381;53.516;49.424;2022-08-11T07:57:33;35.05;32.75
67547;HTU21D;54381;53.516;49.424;2022-08-11T08:00:18;35.28;31.80
67547;HTU21D;54381;53.516;49.424;2022-08-11T08:03:04;35.83;30.50
67547;HTU21D;54381;53.516;49.424;2022-08-11T08:05:52;35.36;31.19
67547;HTU21D;54381;53.516;49.424;2022-08-11T08:08:39;35.34;31.30
67547;HTU21D;54381;53.516;49.424;2022-08-11T08:11:25;35.48;31.25
67547;HTU21D;54381;53.516;49.424;2022-08-11T08:14:10;35.28;31.69
67547;HTU21D;54381;53.516;49.424;2022-08-11T08:16:56;35.63;31.36
67547;HTU21D;54381;53.516;49.424;2022-08-11T08:19:49;35.96;30.13
67547;HTU21D;54381;53.516;49.424;2022-08-11T08:22:17;35.78;30.80
67547;HTU21D;54381;53.516;49.424;2022-08-11T08:24:45;36.01;29.66
67547;HTU21D;54381;53.516;49.424;2022-08-11T08:27:12;35.85;30.51
67547;HTU21D;54381;53.516;49.424;2022-08-11T08:29:40;35.85;31.04
67547;HTU21D;54381;53.516;49.424;2022-08-11T08:32:26;34.97;31.83
67547;HTU21D;54381;53.516;49.424;2022-08-11T08:34:54;32.59;37.37
67547;HTU21D;54381;53.516;49.424;2022-08-11T08:37:22;31.89;39.18
67547;HTU21D;54381;53.516;49.424;2022-08-11T08:39:49;31.24;40.42
67547;HTU21D;54381;53.516;49.424;2022-08-11T08:42:23;30.91;40.53
67547;HTU21D;54381;53.516;49.424;2022-08-11T08:44:53;30.48;41.46
67547;HTU21D;54381;53.516;49.424;2022-08-11T08:47:23;30.48;40.82
67547;HTU21D;54381;53.516;49.424;2022-08-11T08:50:00;30.36;40.59
67547;HTU21D;54381;53.516;49.424;2022-08-11T08:52:32;30.37;40.78
67547;HTU21D;54381;53.516;49.424;2022-08-11T08:55:02;30.44;39.76
67547;HTU21D;54381;53.516;49.424;2022-08-11T08:57:35;30.51;40.33
67547;HTU21D;54381;53.516;49.424;2022-08-11T09:00:06;30.64;40.09
67547;HTU21D;54381;53.516;49.424;2022-08-11T09:02:32;30.33;40.59
67547;HTU21D;54381;53.516;49.424;2022-08-11T09:04:59;30.48;40.30
67547;HTU21D;54381;53.516;49.424;2022-08-11T09:07:26;30.47;40.18
67547;HTU21D;54381;53.516;49.424;2022-08-11T09:09:55;30.35;38.54
67547;HTU21D;54381;53.516;49.424;2022-08-11T09:12:26;30.39;39.78
67547;HTU21D;54381;53.516;49.424;2022-08-11T09:14:54;30.21;40.33
67547;HTU21D;54381;53.516;49.424;2022-08-11T09:20:12;30.23;40.28
67547;HTU21D;54381;53.516;49.424;2022-08-11T09:22:41;30.00;40.33
67547;HTU21D;54381;53.516;49.424;2022-08-11T09:25:29;29.86;41.04
67547;HTU21D;54381;53.516;49.424;2022-08-11T09:28:16;30.02;40.77
67547;HTU21D;54381;53.516;49.424;2022-08-11T09:30:48;29.94;40.01
67547;HTU21D;54381;53.516;49.424;2022-08-11T09:33:22;29.81;41.09
67547;HTU21D;54381;53.516;49.424;2022-08-11T09:35:50;29.68;41.94
67547;HTU21D;54381;53.516;49.424;2022-08-11T09:38:19;29.66;40.61
67547;HTU21D;54381;53.516;49.424;2022-08-11T09:41:08;29.61;41.60
67547;HTU21D;54381;53.516;49.424;2022-08-11T10:55:04;29.04;44.30
67547;HTU21D;54381;53.516;49.424;2022-08-11T10:57:58;29.16;43.72
67547;HTU21D;54381;53.516;49.424;2022-08-11T11:00:49;28.99;43.37
67547;HTU21D;54381;53.516;49.424;2022-08-11T11:03:28;29.09;44.23
67547;HTU21D;54381;53.516;49.424;2022-08-11T11:09:31;29.01;43.02
67547;HTU21D;54381;53.516;49.424;2022-08-11T11:12:10;28.95;43.68
67547;HTU21D;54381;53.516;49.424;2022-08-11T11:15:03;29.08;43.56
67547;HTU21D;54381;53.516;49.424;2022-08-11T11:17:58;29.05;42.87
67547;HTU21D;54381;53.516;49.424;2022-08-11T11:20:52;29.06;43.26
67547;HTU21D;54381;53.516;49.424;2022-08-11T11:29:25;29.07;42.97
67547;HTU21D;54381;53.516;49.424;2022-08-11T11:32:23;28.84;42.90
67547;HTU21D;54381;53.516;49.424;2022-08-11T11:37:48;28.84;42.81
67547;HTU21D;54381;53.516;49.424;2022-08-11T11:40:21;28.80;43.02
67547;HTU21D;54381;53.516;49.424;2022-08-11T11:42:55;28.86;42.98
67547;HTU21D;54381;53.516;49.424;2022-08-11T11:45:29;29.00;42.41
67547;HTU21D;54381;53.516;49.424;2022-08-11T11:48:01;28.94;42.68
67547;HTU21D;54381;53.516;49.424;2022-08-11T11:50:35;28.80;42.64
67547;HTU21D;54381;53.516;49.424;2022-08-11T11:53:08;28.77;44.03
67547;HTU21D;54381;53.516;49.424;2022-08-11T11:55:40;29.04;42.43
67547;HTU21D;54381;53.516;49.424;2022-08-11T11:58:13;29.27;42.73
67547;HTU21D;54381;53.516;49.424;2022-08-11T12:01:03;29.45;42.04
67547;HTU21D;54381;53.516;49.424;2022-08-11T12:03:50;29.21;42.50
67547;HTU21D;54381;53.516;49.424;2022-08-11T12:06:23;29.13;43.23
67547;HTU21D;54381;53.516;49.424;2022-08-11T12:08:56;28.95;43.51
67547;HTU21D;54381;53.516;49.424;2022-08-11T12:11:29;28.88;43.58
67547;HTU21D;54381;53.516;49.424;2022-08-11T12:14:20;28.89;44.03
67547;HTU21D;54381;53.516;49.424;2022-08-11T12:16:55;28.84;44.64
67547;HTU21D;54381;53.516;49.424;2022-08-11T12:19:27;28.83;44.48
67547;HTU21D;54381;53.516;49.424;2022-08-11T12:21:59;28.90;43.42
67547;HTU21D;54381;53.516;49.424;2022-08-11T12:24:49;28.68;44.53
67547;HTU21D;54381;53.516;49.424;2022-08-11T12:27:40;28.62;45.36
67547;HTU21D;54381;53.516;49.424;2022-08-11T12:30:12;28.39;45.88
67547;HTU21D;54381;53.516;49.424;2022-08-11T12:32:44;28.39;45.22
67547;HTU21D;54381;53.516;49.424;2022-08-11T12:35:16;28.38;46.06
67547;HTU21D;54381;53.516;49.424;2022-08-11T12:37:51;28.50;45.41
67547;HTU21D;54381;53.516;49.424;2022-08-11T12:40:25;28.44;45.59
67547;HTU21D;54381;53.516;49.424;2022-08-11T12:43:19;28.30;45.48
67547;HTU21D;54381;53.516;49.424;2022-08-11T12:46:13;28.19;45.70
67547;HTU21D;54381;53.516;49.424;2022-08-11T12:48:47;27.83;47.20
67547;HTU21D;54381;53.516;49.424;2022-08-11T12:51:40;27.76;46.76
67547;HTU21D;54381;53.516;49.424;2022-08-11T12:57:18;27.79;46.87
67547;HTU21D;54381;53.516;49.424;2022-08-11T13:00:09;27.86;47.04
67547;HTU21D;54381;53.516;49.424;2022-08-11T13:03:00;27.69;46.35
67547;HTU21D;54381;53.516;49.424;2022-08-11T13:05:53;27.49;46.54
67547;HTU21D;54381;53.516;49.424;2022-08-11T13:08:27;27.28;47.10
67547;HTU21D;54381;53.516;49.424;2022-08-11T13:11:00;27.27;46.94
67547;HTU21D;54381;53.516;49.424;2022-08-11T13:13:52;27.47;46.29
67547;HTU21D;54381;53.516;49.424;2022-08-11T13:16:34;27.66;45.68
67547;HTU21D;54381;53.516;49.424;2022-08-11T13:19:25;27.68;45.49
67547;HTU21D;54381;53.516;49.424;2022-08-11T13:21:57;27.74;45.84
67547;HTU21D;54381;53.516;49.424;2022-08-11T13:24:29;27.80;45.83
67547;HTU21D;54381;53.516;49.424;2022-08-11T13:27:04;27.63;45.97
67547;HTU21D;54381;53.516;49.424;2022-08-11T13:29:36;27.41;46.36
67547;HTU21D;54381;53.516;49.424;2022-08-11T13:32:10;27.37;46.89
67547;HTU21D;54381;53.516;49.424;2022-08-11T13:34:42;27.34;46.95
67547;HTU21D;54381;53.516;49.424;2022-08-11T13:37:14;27.37;47.33
67547;HTU21D;54381;53.516;49.424;2022-08-11T13:39:46;27.24;47.61
67547;HTU21D;54381;53.516;49.424;2022-08-11T13:42:19;27.13;47.17
67547;HTU21D;54381;53.516;49.424;2022-08-11T13:44:51;27.05;47.17
67547;HTU21D;54381;53.516;49.424;2022-08-11T13:47:23;27.02;47.22
67547;HTU21D;54381;53.516;49.424;2022-08-11T13:49:55;27.05;47.61
67547;HTU21D;54381;53.516;49.424;2022-08-11T13:52:27;27.24;46.64
67547;HTU21D;54381;53.516;49.424;2022-08-11T13:54:59;27.38;46.58
67547;HTU21D;54381;53.516;49.424;2022-08-11T13:57:32;27.34;45.81
67547;HTU21D;54381;53.516;49.424;2022-08-11T14:00:08;27.30;46.86
67547;HTU21D;54381;53.516;49.424;2022-08-11T14:02:42;27.47;45.83
67547;HTU21D;54381;53.516;49.424;2022-08-11T14:05:17;27.31;46.29
67547;HTU21D;54381;53.516;49.424;2022-08-11T14:07:52;27.25;46.45
67547;HTU21D;54381;53.516;49.424;2022-08-11T14:10:27;27.22;46.38
67547;HTU21D;54381;53.516;49.424;2022-08-11T14:13:11;27.15;46.86
67547;HTU21D;54381;53.516;49.424;2022-08-11T14:16:05;26.94;47.31
67547;HTU21D;54381;53.516;49.424;2022-08-11T14:18:42;26.82;47.54
67547;HTU21D;54381;53.516;49.424;2022-08-11T14:21:16;26.60;48.23
67547;HTU21D;54381;53.516;49.424;2022-08-11T14:24:06;26.53;48.46
67547;HTU21D;54381;53.516;49.424;2022-08-11T14:26:39;26.50;48.36
67547;HTU21D;54381;53.516;49.424;2022-08-11T14:29:16;26.42;48.63
67547;HTU21D;54381;53.516;49.424;2022-08-11T14:31:53;26.36;48.74
67547;HTU21D;54381;53.516;49.424;2022-08-11T14:34:26;26.31;48.72
67547;HTU21D;54381;53.516;49.424;2022-08-11T14:37:03;26.36;48.84
67547;HTU21D;54381;53.516;49.424;2022-08-11T14:39:57;26.37;48.97
67547;HTU21D;54381;53.516;49.424;2022-08-11T14:42:29;26.32;48.70
67547;HTU21D;54381;53.516;49.424;2022-08-11T14:45:19;26.27;48.39
67547;HTU21D;54381;53.516;49.424;2022-08-11T14:48:09;26.25;48.70
67547;HTU21D;54381;53.516;49.424;2022-08-11T14:50:41;26.32;49.08
67547;HTU21D;54381;53.516;49.424;2022-08-11T14:53:13;26.36;47.99
67547;HTU21D;54381;53.516;49.424;2022-08-11T14:55:45;26.24;48.21
67547;HTU21D;54381;53.516;49.424;2022-08-11T14:58:35;26.23;47.97
67547;HTU21D;54381;53.516;49.424;2022-08-11T15:01:08;26.18;47.83
67547;HTU21D;54381;53.516;49.424;2022-08-11T15:04:00;26.16;48.24
67547;HTU21D;54381;53.516;49.424;2022-08-11T15:06:31;26.07;48.00
67547;HTU21D;54381;53.516;49.424;2022-08-11T15:09:04;25.97;48.26
67547;HTU21D;54381;53.516;49.424;2022-08-11T15:11:37;25.84;47.32
67547;HTU21D;54381;53.516;49.424;2022-08-11T15:14:27;25.66;48.31
67547;HTU21D;54381;53.516;49.424;2022-08-11T15:17:18;25.65;47.65
67547;HTU21D;54381;53.516;49.424;2022-08-11T15:19:51;25.56;47.76
67547;HTU21D;54381;53.516;49.424;2022-08-11T15:22:42;25.49;47.55
67547;HTU21D;54381;53.516;49.424;2022-08-11T15:25:33;25.47;47.10
67547;HTU21D;54381;53.516;49.424;2022-08-11T15:28:07;25.34;48.05
67547;HTU21D;54381;53.516;49.424;2022-08-11T15:31:01;25.22;48.16
67547;HTU21D;54381;53.516;49.424;2022-08-11T15:33:54;25.17;48.39
67547;HTU21D;54381;53.516;49.424;2022-08-11T15:36:47;25.06;48.86
67547;HTU21D;54381;53.516;49.424;2022-08-11T15:39:47;24.85;49.73
67547;HTU21D;54381;53.516;49.424;2022-08-11T15:42:46;24.74;50.51
67547;HTU21D;54381;53.516;49.424;2022-08-11T15:45:38;24.63;51.03
67547;HTU21D;54381;53.516;49.424;2022-08-11T15:48:33;24.62;51.27
67547;HTU21D;54381;53.516;49.424;2022-08-11T15:54:13;24.48;52.08
67547;HTU21D;54381;53.516;49.424;2022-08-11T15:56:49;24.45;52.41
67547;HTU21D;54381;53.516;49.424;2022-08-11T15:59:23;24.44;52.56
67547;HTU21D;54381;53.516;49.424;2022-08-11T16:02:16;24.36;53.62
67547;HTU21D;54381;53.516;49.424;2022-08-11T16:05:12;24.38;52.88
67547;HTU21D;54381;53.516;49.424;2022-08-11T16:07:45;24.36;52.91
67547;HTU21D;54381;53.516;49.424;2022-08-11T16:10:19;24.31;53.12
67547;HTU21D;54381;53.516;49.424;2022-08-11T16:13:02;24.28;53.36
67547;HTU21D;54381;53.516;49.424;2022-08-11T16:15:41;24.23;53.53
67547;HTU21D;54381;53.516;49.424;2022-08-11T16:18:41;24.15;53.90
67547;HTU21D;54381;53.516;49.424;2022-08-11T16:21:19;24.02;53.85
67547;HTU21D;54381;53.516;49.424;2022-08-11T16:23:55;23.91;54.49
67547;HTU21D;54381;53.516;49.424;2022-08-11T16:26:30;24.01;55.13
67547;HTU21D;54381;53.516;49.424;2022-08-11T16:29:02;23.99;54.01
67547;HTU21D;54381;53.516;49.424;2022-08-11T16:31:35;23.95;54.62
67547;HTU21D;54381;53.516;49.424;2022-08-11T16:34:07;23.90;55.91
67547;HTU21D;54381;53.516;49.424;2022-08-11T16:37:01;23.85;54.49
67547;HTU21D;54381;53.516;49.424;2022-08-11T16:39:51;23.80;54.52
67547;HTU21D;54381;53.516;49.424;2022-08-11T16:42:23;23.70;55.06
67547;HTU21D;54381;53.516;49.424;2022-08-11T16:45:13;23.73;53.96
67547;HTU21D;54381;53.516;49.424;2022-08-11T16:48:05;23.66;53.82
67547;HTU21D;54381;53.516;49.424;2022-08-11T16:50:38;23.71;53.66
67547;HTU21D;54381;53.516;49.424;2022-08-11T16:53:11;23.73;53.88
67547;HTU21D;54381;53.516;49.424;2022-08-11T16:55:45;23.73;52.87
67547;HTU21D;54381;53.516;49.424;2022-08-11T16:58:19;23.79;53.33
67547;HTU21D;54381;53.516;49.424;2022-08-11T17:01:10;23.82;53.01
67547;HTU21D;54381;53.516;49.424;2022-08-11T17:03:46;23.73;53.43
67547;HTU21D;54381;53.516;49.424;2022-08-11T17:06:43;23.71;53.46
67547;HTU21D;54381;53.516;49.424;2022-08-11T17:09:34;23.74;53.52
67547;HTU21D;54381;53.516;49.424;2022-08-11T17:12:25;23.68;53.97
67547;HTU21D;54381;53.516;49.424;2022-08-11T17:15:19;23.76;54.45
67547;HTU21D;54381;53.516;49.424;2022-08-11T17:18:12;23.69;54.29
67547;HTU21D;54381;53.516;49.424;2022-08-11T17:21:05;23.67;54.19
67547;HTU21D;54381;53.516;49.424;2022-08-11T17:23:40;23.52;54.55
67547;HTU21D;54381;53.516;49.424;2022-08-11T17:26:32;23.43;55.70
67547;HTU21D;54381;53.516;49.424;2022-08-11T17:31:56;23.64;54.17
67547;HTU21D;54381;53.516;49.424;2022-08-11T17:35:17;23.75;54.09
67547;HTU21D;54381;53.516;49.424;2022-08-11T17:40:56;23.65;54.10
67547;HTU21D;54381;53.516;49.424;2022-08-11T17:43:47;23.74;53.62
67547;HTU21D;54381;53.516;49.424;2022-08-11T17:46:39;23.80;53.12
67547;HTU21D;54381;53.516;49.424;2022-08-11T17:49:30;23.68;53.85
67547;HTU21D;54381;53.516;49.424;2022-08-11T17:52:08;23.41;55.02
67547;HTU21D;54381;53.516;49.424;2022-08-11T17:54:59;23.28;54.57
67547;HTU21D;54381;53.516;49.424;2022-08-11T17:57:50;23.30;53.61
67547;HTU21D;54381;53.516;49.424;2022-08-11T18:00:41;23.35;53.66
67547;HTU21D;54381;53.516;49.424;2022-08-11T18:03:14;23.22;54.45
67547;HTU21D;54381;53.516;49.424;2022-08-11T18:06:03;23.12;53.81
67547;HTU21D;54381;53.516;49.424;2022-08-11T18:08:39;23.14;54.21
67547;HTU21D;54381;53.516;49.424;2022-08-11T18:11:33;23.09;54.39
67547;HTU21D;54381;53.516;49.424;2022-08-11T18:14:23;23.11;54.81
67547;HTU21D;54381;53.516;49.424;2022-08-11T18:17:14;23.17;54.55
67547;HTU21D;54381;53.516;49.424;2022-08-11T18:20:05;23.09;55.10
67547;HTU21D;54381;53.516;49.424;2022-08-11T18:22:56;22.96;55.71
67547;HTU21D;54381;53.516;49.424;2022-08-11T18:25:47;23.10;55.64
67547;HTU21D;54381;53.516;49.424;2022-08-11T18:28:43;23.12;55.04
67547;HTU21D;54381;53.516;49.424;2022-08-11T18:31:36;23.00;55.29
67547;HTU21D;54381;53.516;49.424;2022-08-11T18:34:36;22.85;54.91
67547;HTU21D;54381;53.516;49.424;2022-08-11T18:37:32;23.10;56.46
67547;HTU21D;54381;53.516;49.424;2022-08-11T18:40:25;23.03;54.26
67547;HTU21D;54381;53.516;49.424;2022-08-11T18:43:16;22.72;55.00
67547;HTU21D;54381;53.516;49.424;2022-08-11T18:46:10;22.77;54.81
67547;HTU21D;54381;53.516;49.424;2022-08-11T18:49:23;22.62;56.02
67547;HTU21D;54381;53.516;49.424;2022-08-11T18:52:16;22.33;57.16
67547;HTU21D;54381;53.516;49.424;2022-08-11T18:55:10;22.43;58.09
67547;HTU21D;54381;53.516;49.424;2022-08-11T18:58:03;22.39;56.02
67547;HTU21D;54381;53.516;49.424;2022-08-11T19:00:56;22.44;56.00
67547;HTU21D;54381;53.516;49.424;2022-08-11T19:03:48;22.51;55.33
67547;HTU21D;54381;53.516;49.424;2022-08-11T19:06:41;22.53;55.05
67547;HTU21D;54381;53.516;49.424;2022-08-11T19:09:34;22.55;56.77
67547;HTU21D;54381;53.516;49.424;2022-08-11T19:12:25;22.62;55.42
67547;HTU21D;54381;53.516;49.424;2022-08-11T19:15:19;22.68;54.74
67547;HTU21D;54381;53.516;49.424;2022-08-11T19:18:18;22.57;54.14
67547;HTU21D;54381;53.516;49.424;2022-08-11T19:21:10;22.43;54.63
67547;HTU21D;54381;53.516;49.424;2022-08-11T19:24:02;22.47;55.35
67547;HTU21D;54381;53.516;49.424;2022-08-11T19:26:53;22.48;56.48
67547;HTU21D;54381;53.516;49.424;2022-08-11T19:29:45;22.51;55.03
67547;HTU21D;54381;53.516;49.424;2022-08-11T19:32:36;22.48;53.86
67547;HTU21D;54381;53.516;49.424;2022-08-11T19:35:27;22.26;56.74
67547;HTU21D;54381;53.516;49.424;2022-08-11T19:38:20;22.40;54.30
67547;HTU21D;54381;53.516;49.424;2022-08-11T19:41:11;22.28;55.20
67547;HTU21D;54381;53.516;49.424;2022-08-11T19:44:02;22.09;55.29
67547;HTU21D;54381;53.516;49.424;2022-08-11T19:46:54;22.06;56.16
67547;HTU21D;54381;53.516;49.424;2022-08-11T19:49:45;21.83;55.25
67547;HTU21D;54381;53.516;49.424;2022-08-11T19:52:37;21.88;54.73
67547;HTU21D;54381;53.516;49.424;2022-08-11T19:55:28;21.80;55.96
67547;HTU21D;54381;53.516;49.424;2022-08-11T19:58:19;21.73;56.66
67547;HTU21D;54381;53.516;49.424;2022-08-11T20:01:09;21.63;55.52
67547;HTU21D;54381;53.516;49.424;2022-08-11T20:03:59;21.49;55.97
67547;HTU21D;54381;53.516;49.424;2022-08-11T20:06:51;21.31;58.22
67547;HTU21D;54381;53.516;49.424;2022-08-11T20:09:43;21.35;58.67
67547;HTU21D;54381;53.516;49.424;2022-08-11T20:12:35;21.58;56.26
67547;HTU21D;54381;53.516;49.424;2022-08-11T20:15:27;21.46;56.99
67547;HTU21D;54381;53.516;49.424;2022-08-11T20:18:18;21.57;55.84
67547;HTU21D;54381;53.516;49.424;2022-08-11T20:21:09;21.64;55.54
67547;HTU21D;54381;53.516;49.424;2022-08-11T20:24:00;21.76;55.72
67547;HTU21D;54381;53.516;49.424;2022-08-11T20:26:51;21.76;58.19
67547;HTU21D;54381;53.516;49.424;2022-08-11T20:29:42;21.97;55.00
67547;HTU21D;54381;53.516;49.424;2022-08-11T20:32:33;21.95;54.95
67547;HTU21D;54381;53.516;49.424;2022-08-11T20:35:24;21.50;56.56
67547;HTU21D;54381;53.516;49.424;2022-08-11T20:38:15;21.72;55.94
67547;HTU21D;54381;53.516;49.424;2022-08-11T20:41:07;22.01;54.62
67547;HTU21D;54381;53.516;49.424;2022-08-11T20:43:58;22.12;55.04
67547;HTU21D;54381;53.516;49.424;2022-08-11T20:46:49;21.77;54.46
67547;HTU21D;54381;53.516;49.424;2022-08-11T20:49:40;21.64;55.67
67547;HTU21D;54381;53.516;49.424;2022-08-11T20:52:31;21.44;58.41
67547;HTU21D;54381;53.516;49.424;2022-08-11T20:55:22;21.53;55.60
67547;HTU21D;54381;53.516;49.424;2022-08-11T20:58:15;20.94;57.66
67547;HTU21D;54381;53.516;49.424;2022-08-11T21:01:06;21.08;56.23
67547;HTU21D;54381;53.516;49.424;2022-08-11T21:03:56;21.08;57.19
67547;HTU21D;54381;53.516;49.424;2022-08-11T21:06:46;20.92;55.97
67547;HTU21D;54381;53.516;49.424;2022-08-11T21:09:37;21.31;56.61
67547;HTU21D;54381;53.516;49.424;2022-08-11T21:12:28;20.86;57.54